Time;durP1;ratioP1;P1;durP2;ratioP2;P2;SDS_P1;SDS_P2;PMS_P1;PMS_P2;Temp;Humidity;BMP_temperature;BMP_pressure;BME280_temperature;BME280_humidity;BME280_pressure;Samples;Min_cycle;Max_cycle;Signal;HPM_P1;HPM_P2
2020/12/21 00:01:04;;;;;;;23.83;8.83;;;6.20;99.90;;;;;;4377025;32;20168;-69
2020/12/21 00:03:41;;;;;;;18.53;8.57;;;6.40;99.90;;;;;;4372381;32;20223;-69
2020/12/21 00:06:10;;;;;;;22.83;9.20;;;6.30;99.90;;;;;;4373933;32;20160;-70
2020/12/21 00:08:47;;;;;;;18.53;9.10;;;6.20;99.90;;;;;;4374938;32;20199;-68
2020/12/21 00:11:16;;;;;;;18.60;8.17;;;6.20;99.90;;;;;;4374241;32;20555;-68
2020/12/21 00:13:46;;;;;;;16.10;8.33;;;6.30;99.90;;;;;;4375220;32;20216;-69
2020/12/21 00:16:13;;;;;;;18.83;8.17;;;6.30;99.90;;;;;;4374742;32;20247;-70
2020/12/21 00:18:41;;;;;;;15.60;7.17;;;6.30;99.90;;;;;;4375668;32;20156;-70
2020/12/21 00:21:09;;;;;;;15.40;7.33;;;6.30;99.90;;;;;;4372704;32;20230;-69
2020/12/21 00:23:39;;;;;;;18.53;7.50;;;6.20;99.90;;;;;;4375386;32;20184;-69
2020/12/21 00:26:08;;;;;;;20.40;8.33;;;6.20;99.90;;;;;;4374593;32;20156;-68
2020/12/21 00:28:35;;;;;;;15.37;8.70;;;6.10;99.90;;;;;;4372457;32;20160;-68
2020/12/21 00:31:01;;;;;;;18.17;8.07;;;6.20;99.90;;;;;;4371080;32;20172;-67
2020/12/21 00:33:31;;;;;;;19.67;7.23;;;6.00;99.90;;;;;;4374450;32;20179;-68
2020/12/21 00:35:58;;;;;;;18.87;7.27;;;6.20;99.90;;;;;;4374613;32;20168;-69
2020/12/21 00:38:24;;;;;;;15.37;7.37;;;6.20;99.90;;;;;;4386382;32;20171;-68
2020/12/21 00:40:52;;;;;;;21.43;8.17;;;6.20;99.90;;;;;;4387704;32;20160;-68
2020/12/21 00:43:19;;;;;;;18.90;7.47;;;6.20;99.90;;;;;;4383977;32;20191;-68
2020/12/21 00:45:46;;;;;;;18.30;7.30;;;6.10;99.90;;;;;;4388971;32;20183;-68
2020/12/21 00:48:12;;;;;;;15.47;7.23;;;6.10;99.90;;;;;;4380760;32;20496;-68
2020/12/21 00:50:42;;;;;;;15.70;7.23;;;6.10;99.90;;;;;;4390310;32;20611;-68
2020/12/21 00:53:08;;;;;;;16.30;6.83;;;6.10;99.90;;;;;;4389461;32;20159;-69
2020/12/21 00:55:38;;;;;;;28.83;7.57;;;6.00;99.90;;;;;;4390919;32;20173;-70
2020/12/21 00:58:04;;;;;;;20.13;6.27;;;6.10;99.90;;;;;;4374761;32;20156;-68
2020/12/21 01:00:32;;;;;;;16.73;7.03;;;6.00;99.90;;;;;;4388863;32;20216;-69
2020/12/21 01:03:00;;;;;;;23.97;6.80;;;6.00;99.90;;;;;;4389849;32;20160;-69
2020/12/21 01:05:26;;;;;;;16.10;6.97;;;5.90;99.90;;;;;;4390056;32;20275;-69
2020/12/21 01:07:52;;;;;;;12.50;6.43;;;6.00;99.90;;;;;;4389282;32;20182;-70
2020/12/21 01:10:19;;;;;;;14.97;6.00;;;6.00;99.90;;;;;;4389112;32;20589;-69
2020/12/21 01:12:46;;;;;;;21.03;6.33;;;6.00;99.90;;;;;;4389541;32;20160;-68
2020/12/21 01:15:12;;;;;;;15.90;6.03;;;5.90;99.90;;;;;;4389229;32;20502;-69
2020/12/21 01:17:40;;;;;;;15.00;6.03;;;5.90;99.90;;;;;;4389031;32;20206;-68
2020/12/21 01:20:07;;;;;;;17.03;6.50;;;5.90;99.90;;;;;;4381754;32;20677;-68
2020/12/21 01:22:36;;;;;;;15.37;5.73;;;5.90;99.90;;;;;;4388470;32;20175;-68
2020/12/21 01:25:05;;;;;;;17.60;6.47;;;5.80;99.90;;;;;;4390436;32;20220;-69
2020/12/21 01:27:32;;;;;;;17.53;6.23;;;5.80;99.90;;;;;;4389544;32;20176;-68
2020/12/21 01:29:59;;;;;;;21.13;6.60;;;5.80;99.90;;;;;;4388710;32;20190;-69
2020/12/21 01:32:27;;;;;;;17.47;6.83;;;5.90;99.90;;;;;;4389229;32;20212;-69
2020/12/21 01:34:56;;;;;;;15.33;7.37;;;5.80;99.90;;;;;;4388412;32;20225;-68
2020/12/21 01:37:23;;;;;;;20.83;6.93;;;5.80;99.90;;;;;;4387586;32;20540;-70
2020/12/21 01:39:49;;;;;;;19.03;7.00;;;5.70;99.90;;;;;;4388891;32;20202;-68
2020/12/21 01:42:16;;;;;;;19.27;7.40;;;5.70;99.90;;;;;;4389081;32;20358;-68
2020/12/21 01:44:43;;;;;;;18.73;7.57;;;5.70;99.90;;;;;;4390480;32;20171;-70
2020/12/21 01:47:11;;;;;;;17.27;6.43;;;5.70;99.90;;;;;;4388660;32;20156;-68
2020/12/21 01:49:38;;;;;;;26.63;8.17;;;5.70;99.90;;;;;;4390168;32;20227;-68
2020/12/21 01:52:07;;;;;;;18.80;7.90;;;5.60;99.90;;;;;;4388114;32;20592;-68
2020/12/21 01:54:34;;;;;;;23.13;7.37;;;5.60;99.90;;;;;;4382872;32;20233;-68
2020/12/21 01:57:01;;;;;;;21.87;6.97;;;5.60;99.90;;;;;;4380108;32;20675;-70
2020/12/21 01:59:27;;;;;;;17.87;7.57;;;5.60;99.90;;;;;;4388406;32;20581;-67
2020/12/21 02:01:54;;;;;;;15.17;7.27;;;5.60;99.90;;;;;;4387993;32;20168;-68
2020/12/21 02:04:23;;;;;;;21.67;7.80;;;5.50;99.90;;;;;;4387243;32;20211;-70
2020/12/21 02:06:50;;;;;;;15.77;7.93;;;5.50;99.90;;;;;;4377518;32;20160;-69
2020/12/21 02:09:28;;;;;;;18.70;7.57;;;5.50;99.90;;;;;;4382133;32;20226;-68
2020/12/21 02:11:57;;;;;;;20.97;8.00;;;5.50;99.90;;;;;;4388766;32;20219;-69
2020/12/21 02:14:26;;;;;;;16.63;7.83;;;5.50;99.90;;;;;;4390358;32;20180;-70
2020/12/21 02:16:58;;;;;;;17.63;8.07;;;5.50;99.90;;;;;;4389113;32;20174;-70
2020/12/21 02:19:29;;;;;;;18.17;7.90;;;5.50;99.90;;;;;;4388116;32;20160;-67
2020/12/21 02:22:11;;;;;;;19.10;7.97;;;5.50;99.90;;;;;;4388728;32;20226;-68
2020/12/21 02:24:41;;;;;;;20.10;8.27;;;5.50;99.90;;;;;;4387186;32;20171;-68
2020/12/21 02:27:07;;;;;;;20.03;8.00;;;5.60;99.90;;;;;;4388385;32;20168;-68
2020/12/21 02:29:34;;;;;;;21.53;7.57;;;5.60;99.90;;;;;;4390994;32;20509;-69
2020/12/21 02:32:02;;;;;;;18.73;7.57;;;5.60;99.90;;;;;;4391933;32;20251;-68
2020/12/21 02:34:28;;;;;;;17.37;7.53;;;5.50;99.90;;;;;;4391260;32;20495;-68
2020/12/21 02:36:56;;;;;;;22.63;7.90;;;5.60;99.90;;;;;;4391774;32;20488;-68
2020/12/21 02:39:23;;;;;;;17.87;7.77;;;5.50;99.90;;;;;;4391408;32;20183;-67
2020/12/21 02:41:50;;;;;;;20.43;7.93;;;5.60;99.90;;;;;;4391600;32;20648;-68
2020/12/21 02:44:19;;;;;;;15.87;7.40;;;5.60;99.90;;;;;;4391330;32;20286;-68
2020/12/21 02:46:51;;;;;;;16.83;7.30;;;5.60;99.90;;;;;;4392213;32;20172;-67
2020/12/21 02:49:18;;;;;;;18.70;7.17;;;5.60;99.90;;;;;;4391032;32;20175;-69
2020/12/21 02:51:54;;;;;;;20.50;7.33;;;5.60;99.90;;;;;;4391267;32;20172;-69
2020/12/21 02:54:23;;;;;;;24.07;6.93;;;5.60;99.90;;;;;;4390939;32;20160;-69
2020/12/21 02:56:54;;;;;;;22.37;7.77;;;5.60;99.90;;;;;;4391366;32;20516;-69
2020/12/21 02:59:21;;;;;;;21.00;7.10;;;5.60;99.90;;;;;;4389932;32;20179;-68
2020/12/21 03:01:49;;;;;;;19.23;7.03;;;5.60;99.90;;;;;;4391409;32;20168;-67
2020/12/21 03:04:17;;;;;;;19.73;7.00;;;5.60;99.90;;;;;;4390454;32;20152;-68
2020/12/21 03:06:43;;;;;;;14.90;6.30;;;5.60;99.90;;;;;;4390371;32;20178;-68
2020/12/21 03:09:09;;;;;;;16.03;7.10;;;5.60;99.90;;;;;;4388955;32;20176;-68
2020/12/21 03:11:37;;;;;;;18.37;6.83;;;5.60;99.90;;;;;;4392825;32;20156;-69
2020/12/21 03:14:03;;;;;;;16.30;6.57;;;5.60;99.90;;;;;;4392409;32;20156;-68
2020/12/21 03:16:29;;;;;;;16.13;6.30;;;5.60;99.90;;;;;;4392092;32;20178;-68
2020/12/21 03:18:56;;;;;;;20.47;7.03;;;5.60;99.90;;;;;;4389712;32;20160;-68
2020/12/21 03:21:22;;;;;;;15.83;6.93;;;5.60;99.90;;;;;;4386151;32;20180;-68
2020/12/21 03:23:51;;;;;;;19.07;8.10;;;5.60;99.90;;;;;;4391564;32;20183;-68
2020/12/21 03:26:18;;;;;;;16.00;7.23;;;5.50;99.90;;;;;;4390675;32;20174;-68
2020/12/21 03:28:51;;;;;;;19.20;6.97;;;5.50;99.90;;;;;;4389480;32;20164;-69
2020/12/21 03:31:21;;;;;;;22.03;7.23;;;5.50;99.90;;;;;;4381858;32;20226;-69
2020/12/21 03:33:49;;;;;;;19.00;6.90;;;5.50;99.90;;;;;;4389159;32;20239;-68
2020/12/21 03:36:15;;;;;;;17.67;7.77;;;5.50;99.90;;;;;;4390227;32;20302;-68
2020/12/21 03:38:41;;;;;;;31.03;8.50;;;5.50;99.90;;;;;;4389695;32;20524;-68
2020/12/21 03:41:08;;;;;;;16.80;7.80;;;5.40;99.90;;;;;;4389625;32;20220;-69
2020/12/21 03:43:34;;;;;;;22.80;6.93;;;5.50;99.90;;;;;;4389949;32;20596;-69
2020/12/21 03:46:01;;;;;;;22.73;7.77;;;5.70;99.90;;;;;;4392885;32;20156;-68
2020/12/21 03:48:29;;;;;;;21.53;8.20;;;5.60;99.90;;;;;;4389788;32;20172;-68
2020/12/21 03:50:56;;;;;;;15.83;7.30;;;5.50;99.90;;;;;;4390865;32;20156;-67
2020/12/21 03:53:22;;;;;;;18.53;8.27;;;5.50;99.90;;;;;;4390156;32;20176;-68
2020/12/21 03:55:48;;;;;;;20.00;8.47;;;5.50;99.90;;;;;;4390062;32;20188;-68
2020/12/21 03:58:16;;;;;;;23.10;8.83;;;5.50;99.90;;;;;;4390129;32;20175;-68
2020/12/21 04:00:54;;;;;;;22.70;7.60;;;5.50;99.90;;;;;;4390714;32;20191;-69
2020/12/21 04:03:21;;;;;;;13.93;7.63;;;5.40;99.90;;;;;;4389920;32;20179;-69
2020/12/21 04:05:49;;;;;;;16.23;8.13;;;5.50;99.90;;;;;;4390006;32;20296;-68
2020/12/21 04:08:16;;;;;;;17.80;7.57;;;5.60;99.90;;;;;;4390188;32;20182;-68
2020/12/21 04:10:44;;;;;;;24.00;8.93;;;5.40;99.90;;;;;;4390156;32;20167;-69
2020/12/21 04:13:10;;;;;;;16.93;7.97;;;5.50;99.90;;;;;;4390166;32;20201;-68
2020/12/21 04:15:36;;;;;;;19.87;7.97;;;5.40;99.90;;;;;;4389983;32;20241;-68
2020/12/21 04:18:03;;;;;;;19.53;8.03;;;5.50;99.90;;;;;;4390001;32;20183;-68
2020/12/21 04:20:30;;;;;;;23.63;7.70;;;5.40;99.90;;;;;;4390164;32;20160;-68
2020/12/21 04:23:02;;;;;;;16.83;8.33;;;5.40;99.90;;;;;;4389494;32;20239;-68
2020/12/21 04:25:29;;;;;;;16.63;8.10;;;5.40;99.90;;;;;;4390851;32;20558;-68
2020/12/21 04:27:56;;;;;;;23.93;8.43;;;5.40;99.90;;;;;;4389244;32;20187;-69
2020/12/21 04:30:24;;;;;;;17.63;7.83;;;5.50;99.90;;;;;;4391181;32;20190;-67
2020/12/21 04:32:50;;;;;;;18.37;7.80;;;5.40;99.90;;;;;;4390439;32;20172;-67
2020/12/21 04:35:17;;;;;;;17.57;8.23;;;5.60;99.90;;;;;;4389652;32;20212;-69
2020/12/21 04:37:50;;;;;;;20.07;8.03;;;5.40;99.90;;;;;;4388428;32;20199;-69
2020/12/21 04:40:17;;;;;;;17.73;8.30;;;5.40;99.90;;;;;;4390296;32;20152;-69
2020/12/21 04:42:50;;;;;;;20.53;7.50;;;5.40;99.90;;;;;;4389684;32;20152;-68
2020/12/21 04:45:17;;;;;;;16.73;7.03;;;5.30;99.90;;;;;;4389462;32;20221;-68
2020/12/21 04:47:44;;;;;;;19.83;8.53;;;5.30;99.90;;;;;;4389699;32;20556;-69
2020/12/21 04:50:12;;;;;;;17.30;7.87;;;5.30;99.90;;;;;;4390701;32;20220;-68
2020/12/21 04:52:49;;;;;;;22.53;8.13;;;5.30;99.90;;;;;;4388096;32;20179;-69
2020/12/21 04:55:17;;;;;;;16.57;7.90;;;5.30;99.90;;;;;;4389172;32;20584;-67
2020/12/21 04:57:57;;;;;;;24.37;7.90;;;5.20;99.90;;;;;;4388177;32;20160;-68
2020/12/21 05:00:24;;;;;;;26.07;9.97;;;5.20;99.90;;;;;;4375047;32;20630;-68
2020/12/21 05:02:51;;;;;;;14.10;7.53;;;5.20;99.90;;;;;;4388152;32;20168;-68
2020/12/21 05:05:31;;;;;;;24.80;8.60;;;5.20;99.90;;;;;;4389097;32;20177;-68
2020/12/21 05:08:07;;;;;;;27.13;8.67;;;5.20;99.90;;;;;;4387190;32;20220;-68
2020/12/21 05:10:35;;;;;;;23.77;8.53;;;5.20;99.90;;;;;;4388780;32;20159;-69
2020/12/21 05:13:03;;;;;;;27.97;9.07;;;5.20;99.90;;;;;;4389384;32;20160;-68
2020/12/21 05:15:35;;;;;;;21.83;8.50;;;5.20;99.90;;;;;;4388694;32;20193;-67
2020/12/21 05:18:08;;;;;;;18.57;8.63;;;5.20;99.90;;;;;;4386200;32;20158;-68
2020/12/21 05:20:35;;;;;;;17.87;7.20;;;5.20;99.90;;;;;;4388232;32;20153;-68
2020/12/21 05:23:14;;;;;;;13.83;6.57;;;5.20;99.90;;;;;;4389284;32;20164;-67
2020/12/21 05:25:40;;;;;;;20.87;7.67;;;5.20;99.90;;;;;;4383795;32;20222;-68
2020/12/21 05:28:11;;;;;;;18.17;8.13;;;5.20;99.90;;;;;;4389861;32;20582;-69
2020/12/21 05:30:50;;;;;;;23.43;8.80;;;5.20;99.90;;;;;;4385680;32;20188;-67
2020/12/21 05:33:17;;;;;;;22.07;7.77;;;5.20;99.90;;;;;;4386775;32;20336;-70
2020/12/21 05:35:43;;;;;;;17.43;7.17;;;5.20;99.90;;;;;;4388401;32;20483;-69
2020/12/21 05:38:20;;;;;;;14.47;7.77;;;5.10;99.90;;;;;;4385609;32;20788;-68
2020/12/21 05:40:47;;;;;;;17.57;7.50;;;5.10;99.90;;;;;;4384790;32;20171;-68
2020/12/21 05:43:23;;;;;;;16.10;7.20;;;5.10;99.90;;;;;;4389231;32;20160;-68
2020/12/21 05:46:01;;;;;;;17.23;7.67;;;5.20;99.90;;;;;;4390738;32;20159;-69
2020/12/21 05:48:31;;;;;;;20.60;7.73;;;5.10;99.90;;;;;;4388725;32;20209;-70
2020/12/21 05:51:02;;;;;;;18.93;7.13;;;5.10;99.90;;;;;;4388390;32;20152;-68
2020/12/21 05:53:43;;;;;;;18.57;8.30;;;5.20;99.90;;;;;;4389492;32;20161;-68
2020/12/21 05:56:15;;;;;;;24.33;7.83;;;5.30;99.90;;;;;;4377580;32;20235;-68
2020/12/21 05:58:47;;;;;;;20.40;7.50;;;5.20;99.90;;;;;;4388306;32;20148;-68
2020/12/21 06:01:16;;;;;;;21.47;8.67;;;5.30;99.90;;;;;;4389063;32;20156;-69
2020/12/21 06:03:45;;;;;;;20.53;7.90;;;5.20;99.90;;;;;;4388368;32;20176;-67
2020/12/21 06:06:17;;;;;;;15.67;7.17;;;5.40;99.90;;;;;;4391872;32;20152;-69
2020/12/21 06:08:48;;;;;;;21.00;6.97;;;5.30;99.90;;;;;;4392139;32;20172;-69
2020/12/21 06:11:19;;;;;;;26.33;8.23;;;5.40;99.90;;;;;;4390398;32;20161;-68
2020/12/21 06:13:54;;;;;;;18.07;7.83;;;5.30;99.90;;;;;;4392815;32;20178;-69
2020/12/21 06:16:21;;;;;;;20.13;8.23;;;5.40;99.90;;;;;;4380409;32;20548;-69
2020/12/21 06:19:01;;;;;;;21.27;6.70;;;5.40;99.90;;;;;;4385998;32;20203;-69
2020/12/21 06:21:28;;;;;;;19.03;7.33;;;5.40;99.90;;;;;;4390630;32;20148;-68
2020/12/21 06:23:56;;;;;;;19.27;7.40;;;5.40;99.90;;;;;;4391695;32;20168;-67
2020/12/21 06:26:40;;;;;;;16.07;7.10;;;5.40;99.90;;;;;;4391373;32;20194;-68
2020/12/21 06:29:28;;;;;;;20.83;6.90;;;5.40;99.90;;;;;;4390977;32;20218;-68
2020/12/21 06:31:57;;;;;;;22.07;7.70;;;5.30;99.90;;;;;;4390825;32;20160;-68
2020/12/21 06:34:34;;;;;;;23.63;8.47;;;5.40;99.90;;;;;;4392803;32;20152;-68
2020/12/21 06:37:01;;;;;;;17.43;7.97;;;5.40;99.90;;;;;;4391273;32;20231;-68
2020/12/21 06:39:34;;;;;;;14.30;6.50;;;5.40;99.90;;;;;;4390309;32;20203;-69
2020/12/21 06:42:09;;;;;;;17.60;7.27;;;5.40;99.90;;;;;;4390388;32;20557;-68
2020/12/21 06:44:40;;;;;;;18.07;7.40;;;5.40;99.90;;;;;;4391459;32;20167;-68
2020/12/21 06:47:11;;;;;;;16.73;7.37;;;5.50;99.90;;;;;;4392313;32;20568;-69
2020/12/21 06:49:38;;;;;;;18.90;7.87;;;5.50;99.90;;;;;;4387514;32;20481;-69
2020/12/21 06:52:05;;;;;;;14.73;7.03;;;5.50;99.90;;;;;;4389753;32;20184;-69
2020/12/21 06:54:36;;;;;;;23.03;7.33;;;5.50;99.90;;;;;;4390675;32;20168;-68
2020/12/21 06:57:04;;;;;;;13.47;6.67;;;5.50;99.90;;;;;;4390731;32;20201;-67
2020/12/21 06:59:35;;;;;;;17.50;7.07;;;5.50;99.90;;;;;;4390709;32;20215;-70
2020/12/21 07:02:02;;;;;;;16.07;6.77;;;5.40;99.90;;;;;;4392480;32;20159;-69
2020/12/21 07:04:32;;;;;;;19.80;7.93;;;5.50;99.90;;;;;;4391174;32;20155;-68
2020/12/21 07:07:01;;;;;;;22.93;6.97;;;5.50;99.90;;;;;;4392757;32;20155;-68
2020/12/21 07:09:30;;;;;;;19.43;7.67;;;5.50;99.90;;;;;;4381275;32;20187;-69
2020/12/21 07:12:00;;;;;;;17.93;7.57;;;5.60;99.90;;;;;;4391101;32;20490;-69
2020/12/21 07:14:31;;;;;;;18.03;8.43;;;5.70;99.90;;;;;;4388577;32;20500;-68
2020/12/21 07:17:15;;;;;;;20.37;8.37;;;5.60;99.90;;;;;;4385225;32;20553;-69
2020/12/21 07:19:47;;;;;;;16.43;7.83;;;5.60;99.90;;;;;;4389915;32;20179;-69
2020/12/21 07:22:16;;;;;;;18.30;8.20;;;5.60;99.90;;;;;;4390323;32;20171;-69
2020/12/21 07:24:46;;;;;;;19.13;7.60;;;5.60;99.90;;;;;;4382170;32;20171;-69
2020/12/21 07:27:13;;;;;;;17.30;7.63;;;5.60;99.90;;;;;;4389540;32;20160;-69
2020/12/21 07:29:40;;;;;;;16.73;8.47;;;5.50;99.90;;;;;;4386496;32;20190;-69
2020/12/21 07:32:07;;;;;;;23.73;9.50;;;5.60;99.90;;;;;;4390454;32;20164;-69
2020/12/21 07:34:34;;;;;;;21.77;10.57;;;5.60;99.90;;;;;;4385810;32;20229;-69
2020/12/21 07:37:09;;;;;;;22.40;8.63;;;5.50;99.90;;;;;;4389628;32;20232;-68
2020/12/21 07:39:37;;;;;;;21.83;8.87;;;5.60;99.90;;;;;;4394071;32;20256;-68
2020/12/21 07:42:12;;;;;;;26.13;13.97;;;5.70;99.90;;;;;;4393511;32;20498;-68
2020/12/21 07:44:54;;;;;;;15.73;10.00;;;5.70;99.90;;;;;;4393520;32;20155;-70
2020/12/21 07:47:25;;;;;;;20.77;9.47;;;5.70;99.90;;;;;;4392408;32;20156;-68
2020/12/21 07:49:52;;;;;;;22.10;8.93;;;5.70;99.90;;;;;;4390553;32;20547;-68
2020/12/21 07:52:19;;;;;;;22.77;10.10;;;5.70;99.90;;;;;;4394898;32;20661;-68
2020/12/21 07:54:46;;;;;;;23.63;12.17;;;5.60;99.90;;;;;;4394976;32;20194;-67
2020/12/21 07:57:17;;;;;;;23.93;10.33;;;5.60;99.90;;;;;;4395145;32;20201;-69
2020/12/21 07:59:44;;;;;;;22.33;9.13;;;5.70;99.90;;;;;;4397054;32;20156;-69
2020/12/21 08:02:23;;;;;;;29.13;10.40;;;5.70;99.90;;;;;;4397613;32;20253;-67
2020/12/21 08:04:52;;;;;;;21.20;10.73;;;5.80;99.90;;;;;;4391929;32;20209;-69
2020/12/21 08:07:18;;;;;;;21.33;9.20;;;5.80;99.90;;;;;;4393268;32;20168;-68
2020/12/21 08:09:45;;;;;;;18.67;8.60;;;5.90;99.90;;;;;;4392244;32;20176;-69
2020/12/21 08:12:18;;;;;;;22.83;10.07;;;6.10;99.90;;;;;;4391214;32;20199;-68
2020/12/21 08:14:46;;;;;;;19.57;9.73;;;5.90;99.90;;;;;;4391041;32;20279;-69
2020/12/21 08:17:16;;;;;;;13.53;8.43;;;5.90;99.90;;;;;;4392804;32;20159;-69
2020/12/21 08:19:47;;;;;;;17.80;9.70;;;6.00;99.90;;;;;;4392655;32;20183;-68
2020/12/21 08:22:19;;;;;;;24.03;11.17;;;6.10;99.90;;;;;;4395163;32;20184;-68
2020/12/21 08:24:58;;;;;;;20.23;9.63;;;6.10;99.90;;;;;;4391178;32;20160;-69
2020/12/21 08:27:25;;;;;;;18.07;9.50;;;6.20;99.90;;;;;;4390299;32;20595;-70
2020/12/21 08:29:52;;;;;;;18.57;8.60;;;6.20;99.90;;;;;;4393050;32;20180;-69
2020/12/21 08:38:52;;;;;;;5.27;2.20;;;15.70;99.90;;;;;;4243918;32;6794757;-62
2020/12/21 08:43:04;;;;;;;2.47;1.77;;;18.90;99.90;;;;;;4270891;31;5657419;-58
2020/12/21 08:45:30;;;;;;;4.40;2.00;;;18.90;99.90;;;;;;4426293;32;20648;-62
2020/12/21 08:48:01;;;;;;;6.77;2.10;;;19.00;99.90;;;;;;4434645;32;20249;-58
2020/12/21 08:50:28;;;;;;;3.30;2.07;;;19.80;99.90;;;;;;4438828;32;20168;-60
2020/12/21 08:52:54;;;;;;;3.23;1.60;;;20.50;99.90;;;;;;4434503;32;20198;-62
2020/12/21 08:55:23;;;;;;;4.00;2.23;;;20.10;99.90;;;;;;4431421;32;20237;-66
2020/12/21 08:57:51;;;;;;;4.67;1.97;;;23.70;87.20;;;;;;4439211;32;20175;-68
2020/12/21 09:00:22;;;;;;;7.80;2.40;;;24.40;48.30;;;;;;4430247;32;20189;-69
2020/12/21 09:02:51;;;;;;;7.90;2.30;;;22.20;47.60;;;;;;4432095;32;20237;-66
2020/12/21 09:05:22;;;;;;;6.80;2.50;;;21.10;50.10;;;;;;4431692;32;20486;-68
2020/12/21 09:07:48;;;;;;;6.67;2.10;;;20.60;52.30;;;;;;4432686;32;20463;-70
2020/12/21 09:10:18;;;;;;;6.83;2.43;;;20.40;52.40;;;;;;4432412;32;20172;-73
2020/12/21 09:12:46;;;;;;;6.37;1.93;;;20.30;52.50;;;;;;4436725;32;20466;-73
2020/12/21 09:15:12;;;;;;;4.40;1.93;;;24.60;56.50;;;;;;4432100;32;20579;-67
2020/12/21 09:17:42;;;;;;;3.60;1.80;;;25.20;69.00;;;;;;4436609;32;20105;-73
2020/12/21 09:20:08;;;;;;;4.68;2.10;;;22.70;47.30;;;;;;4437536;32;20377;-68
2020/12/21 09:22:37;;;;;;;5.73;2.03;;;21.00;51.40;;;;;;4437371;32;20178;-69
2020/12/21 09:25:05;;;;;;;7.33;2.10;;;20.30;52.90;;;;;;4436167;32;20201;-66
2020/12/21 09:27:41;;;;;;;5.17;1.87;;;20.00;53.50;;;;;;4433440;32;20571;-69
2020/12/21 09:30:09;;;;;;;4.47;1.90;;;19.90;53.90;;;;;;4438826;32;20170;-69
2020/12/21 11:32:28;;;;;;;7.87;1.93;;;21.40;53.50;;;;;;4279299;32;5643992;-63
2020/12/21 11:34:54;;;;;;;4.40;1.90;;;20.90;56.40;;;;;;4452510;32;20210;-65
2020/12/21 11:37:21;;;;;;;7.87;1.70;;;20.80;56.40;;;;;;4451991;32;20202;-72
2020/12/21 11:39:49;;;;;;;5.03;1.87;;;20.80;59.00;;;;;;4450084;32;20266;-75
2020/12/21 11:43:17;;;;;;;2.40;1.63;;;21.30;55.50;;;;;;4261962;32;5930540;-58
2020/12/21 11:45:44;;;;;;;5.53;1.50;;;21.70;54.10;;;;;;4443971;32;20177;-58
2020/12/21 11:48:10;;;;;;;6.43;1.30;;;21.60;53.70;;;;;;4445927;32;20255;-57
2020/12/21 11:50:36;;;;;;;2.73;1.40;;;21.50;54.20;;;;;;4444254;32;20262;-54
2020/12/21 11:53:03;;;;;;;7.70;1.60;;;21.40;53.60;;;;;;4443537;32;20166;-58
2020/12/21 11:55:30;;;;;;;6.13;1.30;;;21.30;54.00;;;;;;4442946;32;20286;-59
2020/12/21 11:57:58;;;;;;;8.50;1.40;;;21.20;54.50;;;;;;4444417;32;20282;-59
2020/12/21 12:00:25;;;;;;;4.50;1.47;;;21.20;53.80;;;;;;4443116;32;20408;-58
2020/12/21 12:02:51;;;;;;;3.93;1.43;;;21.10;53.90;;;;;;4445382;32;20656;-61
2020/12/21 12:05:22;;;;;;;2.33;1.07;;;21.10;54.60;;;;;;4446238;32;20256;-60
2020/12/21 12:07:49;;;;;;;3.13;1.27;;;21.10;54.40;;;;;;4446577;32;20187;-60
2020/12/21 12:10:16;;;;;;;2.47;1.40;;;21.10;54.40;;;;;;4444720;32;20174;-67
2020/12/21 12:12:46;;;;;;;3.20;1.40;;;21.10;54.20;;;;;;4444926;32;20167;-59
2020/12/21 12:18:09;;;;;;;6.20;1.60;;;21.00;53.70;;;;;;4443512;32;20624;-57
2020/12/21 12:20:48;;;;;;;2.90;1.30;;;21.00;53.60;;;;;;4446182;32;20206;-59
2020/12/21 12:23:19;;;;;;;3.60;1.50;;;21.00;54.20;;;;;;4443335;32;20150;-60
2020/12/21 12:25:54;;;;;;;5.60;1.30;;;21.00;54.30;;;;;;4441281;32;20263;-59
2020/12/21 12:28:24;;;;;;;3.30;1.20;;;21.00;53.80;;;;;;4439012;32;21144;-56
2020/12/21 12:30:55;;;;;;;3.67;1.47;;;21.00;54.20;;;;;;4441590;32;20361;-60
2020/12/21 12:33:30;;;;;;;2.70;1.33;;;21.00;54.20;;;;;;4437034;32;20695;-58
2020/12/21 12:36:07;;;;;;;3.17;1.30;;;21.00;54.30;;;;;;4442721;32;20198;-58
2020/12/21 12:41:32;;;;;;;2.63;1.37;;;21.00;53.90;;;;;;4442209;32;20209;-59
2020/12/21 12:43:58;;;;;;;4.60;1.47;;;21.00;54.40;;;;;;4442689;32;20168;-58
2020/12/21 12:46:24;;;;;;;2.70;1.40;;;21.00;54.60;;;;;;4441337;32;20545;-59
2020/12/21 12:48:59;;;;;;;4.00;1.40;;;21.00;54.10;;;;;;4442506;32;20222;-59
2020/12/21 12:51:29;;;;;;;2.90;1.23;;;21.00;54.50;;;;;;4443897;32;20215;-60
2020/12/21 12:54:05;;;;;;;1.60;1.07;;;21.00;54.70;;;;;;4437280;32;20151;-59
2020/12/21 12:56:34;;;;;;;3.07;1.50;;;21.00;54.80;;;;;;4434595;32;20150;-58
2020/12/21 12:59:11;;;;;;;14.17;2.00;;;21.00;54.80;;;;;;4434260;32;20203;-59
2020/12/21 13:01:42;;;;;;;2.53;1.17;;;21.00;54.70;;;;;;4435022;32;20164;-60
2020/12/21 13:04:17;;;;;;;5.30;1.50;;;21.00;54.70;;;;;;4434117;32;20210;-59
2020/12/21 13:06:53;;;;;;;2.87;1.33;;;21.00;54.40;;;;;;4429976;32;20662;-59
2020/12/21 13:09:19;;;;;;;5.57;1.23;;;21.00;54.60;;;;;;4432746;32;20177;-59
2020/12/21 13:11:45;;;;;;;3.80;1.47;;;21.00;54.10;;;;;;4433718;32;20206;-59
2020/12/21 13:14:12;;;;;;;3.87;1.50;;;20.90;54.20;;;;;;4432402;32;20277;-59
2020/12/21 13:16:39;;;;;;;5.87;1.70;;;20.90;54.20;;;;;;4431530;32;20146;-59
2020/12/21 13:19:07;;;;;;;3.27;1.67;;;20.90;54.10;;;;;;4430785;32;20179;-59
2020/12/21 13:21:37;;;;;;;3.40;1.60;;;20.90;54.10;;;;;;4434515;32;20286;-57
2020/12/21 13:24:06;;;;;;;2.53;1.20;;;20.80;54.10;;;;;;4433606;32;20143;-58
2020/12/21 13:26:32;;;;;;;4.90;1.33;;;20.80;54.10;;;;;;4434075;32;20146;-58
2020/12/21 13:28:59;;;;;;;4.00;1.47;;;20.80;54.10;;;;;;4430987;32;20278;-58
2020/12/21 13:31:29;;;;;;;3.63;1.40;;;20.80;54.10;;;;;;4434503;32;20345;-59
2020/12/21 13:33:59;;;;;;;7.60;1.40;;;20.70;54.00;;;;;;4433708;32;20170;-59
2020/12/21 13:36:25;;;;;;;4.50;1.47;;;20.70;54.20;;;;;;4434374;32;20288;-58
2020/12/21 13:38:52;;;;;;;5.93;1.40;;;20.70;54.30;;;;;;4435583;32;20178;-58
2020/12/21 13:41:18;;;;;;;6.07;1.60;;;20.70;54.40;;;;;;4431342;32;20185;-59
2020/12/21 13:43:45;;;;;;;5.97;1.80;;;20.70;54.50;;;;;;4431683;32;20497;-56
2020/12/21 13:46:13;;;;;;;9.03;1.40;;;20.60;54.20;;;;;;4429916;32;20175;-58
2020/12/21 13:48:42;;;;;;;3.67;1.20;;;20.60;54.70;;;;;;4433981;32;20224;-58
2020/12/21 13:51:09;;;;;;;3.57;1.33;;;20.60;55.10;;;;;;4432826;32;20483;-59
2020/12/21 13:53:36;;;;;;;5.37;1.93;;;20.70;54.70;;;;;;4430799;32;20150;-61
2020/12/21 13:56:04;;;;;;;4.13;1.50;;;20.70;55.00;;;;;;4436840;32;20493;-60
2020/12/21 13:58:30;;;;;;;3.90;1.67;;;20.70;55.20;;;;;;4435781;32;20202;-61
2020/12/21 14:01:00;;;;;;;4.07;1.77;;;20.70;54.80;;;;;;4433066;32;20669;-58
2020/12/21 14:03:30;;;;;;;3.10;1.60;;;20.70;55.10;;;;;;4435095;32;20151;-58
2020/12/21 14:06:00;;;;;;;4.17;1.40;;;20.70;55.10;;;;;;4434084;32;20159;-58
2020/12/21 14:08:30;;;;;;;3.93;1.57;;;20.70;55.20;;;;;;4431919;32;20151;-59
2020/12/21 14:11:08;;;;;;;1.97;1.00;;;20.70;54.80;;;;;;4435446;32;20538;-58
2020/12/21 14:13:39;;;;;;;5.00;1.47;;;20.70;54.70;;;;;;4429511;32;20197;-57
2020/12/21 14:16:17;;;;;;;2.93;1.33;;;20.60;54.60;;;;;;4432898;32;20701;-58
2020/12/21 14:18:49;;;;;;;2.33;1.20;;;20.60;54.40;;;;;;4436306;32;20166;-58
2020/12/21 14:21:19;;;;;;;2.33;1.00;;;20.60;54.40;;;;;;4435090;32;20174;-58
2020/12/21 14:23:46;;;;;;;5.27;1.40;;;20.60;54.60;;;;;;4429167;32;20260;-59
2020/12/21 14:26:18;;;;;;;2.03;1.23;;;20.60;54.30;;;;;;4434709;32;20222;-58
2020/12/21 14:28:47;;;;;;;3.00;1.80;;;20.60;54.60;;;;;;4433381;32;20171;-58
2020/12/21 14:31:18;;;;;;;2.70;1.23;;;20.60;54.40;;;;;;4434496;32;20182;-56
2020/12/21 14:33:44;;;;;;;2.90;1.27;;;20.60;55.00;;;;;;4434807;32;20200;-69
2020/12/21 14:36:15;;;;;;;4.10;1.30;;;20.50;54.80;;;;;;4432275;32;20210;-70
2020/12/21 14:38:43;;;;;;;6.33;1.47;;;20.50;54.90;;;;;;4432831;32;20474;-69
2020/12/21 14:41:14;;;;;;;1.53;1.40;;;20.50;54.80;;;;;;4435928;32;20234;-71
2020/12/21 14:43:45;;;;;;;3.57;1.43;;;20.50;54.90;;;;;;4435354;32;20174;-67
2020/12/21 14:46:18;;;;;;;3.03;1.00;;;20.50;54.90;;;;;;4433433;32;20185;-64
2020/12/21 14:48:44;;;;;;;2.83;1.47;;;20.50;55.00;;;;;;4430125;32;20267;-69
2020/12/21 14:51:19;;;;;;;3.80;1.20;;;20.50;54.90;;;;;;4431234;32;20638;-69
2020/12/21 14:53:52;;;;;;;1.70;1.10;;;20.50;54.90;;;;;;4433994;32;20556;-65
2020/12/21 14:56:22;;;;;;;5.00;1.40;;;20.50;54.70;;;;;;4431539;32;20220;-67
2020/12/21 14:58:48;;;;;;;3.07;1.10;;;20.50;54.50;;;;;;4430508;32;20170;-64
2020/12/21 15:01:15;;;;;;;3.17;1.20;;;20.60;54.60;;;;;;4430650;32;20210;-65
2020/12/21 15:03:46;;;;;;;6.37;1.87;;;20.50;54.70;;;;;;4426687;32;20807;-68
2020/12/21 15:06:12;;;;;;;3.50;0.93;;;20.50;54.70;;;;;;4428291;32;20202;-62
2020/12/21 15:08:39;;;;;;;3.80;1.50;;;20.50;54.90;;;;;;4425167;32;20551;-69
2020/12/21 15:15:06;;;;;;;2.73;1.40;;;17.90;51.40;;;;;;4267731;32;5994088;-67